createdAt,value
2022-10-21T00:02:09.767Z,85.05
2022-10-21T00:05:13.442Z,84.42
2022-10-21T00:08:15.719Z,84.23
2022-10-21T00:11:17.749Z,83.82
2022-10-21T00:14:20.060Z,83.57
2022-10-21T00:17:22.849Z,82.31
2022-10-21T00:20:24.707Z,82.64
2022-10-21T00:23:26.748Z,83.42
2022-10-21T00:26:28.778Z,82.56
2022-10-21T00:29:30.757Z,82.52
2022-10-21T00:32:33.172Z,82.07
2022-10-21T00:35:34.987Z,81.77
2022-10-21T00:38:36.996Z,82.33
2022-10-21T00:41:39.136Z,82.13
2022-10-21T00:44:41.732Z,81.54
2022-10-21T00:48:06.418Z,83.38
2022-10-21T00:51:11.878Z,84.10
2022-10-21T00:54:14.987Z,84.54
2022-10-21T00:57:17.403Z,84.73
2022-10-21T01:00:20.231Z,85.51
2022-10-21T01:03:23.965Z,85.77
2022-10-21T01:06:27.206Z,85.18
2022-10-21T01:09:29.803Z,85.80
2022-10-21T01:12:44.695Z,86.50
2022-10-21T01:15:49.505Z,86.70
2022-10-21T01:19:18.768Z,86.80
2022-10-21T01:22:54.569Z,87.63
2022-10-21T01:25:56.265Z,86.72
2022-10-21T01:29:09.700Z,87.37
2022-10-21T01:32:13.910Z,87.65
2022-10-21T01:35:37.856Z,87.19
2022-10-21T01:38:49.977Z,86.65
2022-10-21T01:41:59.617Z,87.53
2022-10-21T01:45:31.166Z,87.02
2022-10-21T01:48:37.316Z,87.41
2022-10-21T01:51:39.998Z,87.43
2022-10-21T01:54:45.257Z,87.97
2022-10-21T01:57:52.377Z,87.29
2022-10-21T02:00:55.833Z,87.83
2022-10-21T02:04:00.144Z,88.04
2022-10-21T02:07:02.678Z,87.78
2022-10-21T02:10:04.978Z,87.22
2022-10-21T02:13:10.251Z,87.84
2022-10-21T02:16:16.667Z,87.32
2022-10-21T02:19:19.987Z,86.65
2022-10-21T02:22:22.603Z,86.51
2022-10-21T02:25:27.301Z,86.14
2022-10-21T02:28:29.184Z,85.91
2022-10-21T02:31:55.157Z,85.71
2022-10-21T02:35:35.265Z,86.30
2022-10-21T02:38:50.710Z,85.64
2022-10-21T02:41:54.483Z,86.46
2022-10-21T02:44:56.169Z,87.14
2022-10-21T02:47:58.000Z,87.04
2022-10-21T02:51:01.170Z,86.38
2022-10-21T02:54:03.112Z,85.76
2022-10-21T02:57:05.545Z,86.14
2022-10-21T03:00:08.159Z,86.45
2022-10-21T03:03:09.898Z,85.71
2022-10-21T03:06:12.122Z,85.25
2022-10-21T03:09:13.905Z,85.26
2022-10-21T03:12:15.791Z,85.09
2022-10-21T03:15:17.705Z,85.41
2022-10-21T03:18:19.468Z,85.63
2022-10-21T03:21:21.765Z,86.42
2022-10-21T03:24:28.931Z,86.33
2022-10-21T03:30:38.574Z,85.61
2022-10-21T03:33:41.203Z,85.45
2022-10-21T03:36:43.004Z,84.63
2022-10-21T03:39:45.087Z,84.45
2022-10-21T03:42:47.707Z,83.87
2022-10-21T03:45:49.457Z,82.31
2022-10-21T03:48:51.668Z,83.40
2022-10-21T03:51:53.402Z,82.67
2022-10-21T03:54:55.323Z,82.04
2022-10-21T03:57:57.460Z,82.51
2022-10-21T04:00:59.201Z,82.96
2022-10-21T04:04:01.970Z,83.60
2022-10-21T04:07:04.194Z,83.97
2022-10-21T04:10:07.060Z,83.17
2022-10-21T04:13:09.698Z,82.96
2022-10-21T04:16:15.562Z,82.77
2022-10-21T04:19:18.554Z,83.05
2022-10-21T04:22:20.371Z,83.37
2022-10-21T04:25:23.305Z,84.07
2022-10-21T04:28:25.276Z,84.61
2022-10-21T04:31:31.326Z,83.54
2022-10-21T04:34:34.186Z,84.28
2022-10-21T04:37:40.254Z,83.94
2022-10-21T04:40:42.179Z,85.12
2022-10-21T04:43:44.601Z,84.89
2022-10-21T04:46:46.774Z,85.46
2022-10-21T04:49:48.719Z,85.62
2022-10-21T04:52:51.673Z,85.79
2022-10-21T04:55:54.398Z,86.36
2022-10-21T04:58:56.853Z,88.10
2022-10-21T05:01:59.185Z,87.46
2022-10-21T05:05:01.659Z,88.27
2022-10-21T05:08:09.285Z,88.70
2022-10-21T05:11:16.174Z,87.77
2022-10-21T05:14:21.671Z,88.50
2022-10-21T05:17:25.339Z,89.05
2022-10-21T05:20:27.242Z,87.40
2022-10-21T05:23:30.094Z,86.16
2022-10-21T05:26:32.513Z,85.88
2022-10-21T05:29:34.466Z,86.21
2022-10-21T05:32:36.903Z,85.04
2022-10-21T05:35:40.168Z,85.01
2022-10-21T05:38:42.926Z,83.91
2022-10-21T05:41:47.799Z,84.77
2022-10-21T05:44:50.791Z,84.93
2022-10-21T05:47:52.711Z,85.04
2022-10-21T05:50:56.233Z,84.92
2022-10-21T05:53:58.510Z,85.24
2022-10-21T05:57:02.806Z,83.77
2022-10-21T06:00:06.724Z,83.30
2022-10-21T06:03:09.019Z,83.78
2022-10-21T06:06:11.176Z,83.93
2022-10-21T06:09:13.169Z,83.08
2022-10-21T06:12:15.291Z,83.28
2022-10-21T06:15:17.443Z,83.67
2022-10-21T06:18:19.818Z,82.39
2022-10-21T06:21:22.298Z,82.51
2022-10-21T06:24:24.839Z,82.12
2022-10-21T06:27:26.763Z,81.30
2022-10-21T06:30:28.778Z,80.51
2022-10-21T06:33:31.015Z,81.16
2022-10-21T06:36:33.264Z,81.92
2022-10-21T06:39:35.064Z,82.55
2022-10-21T06:42:37.111Z,82.50
2022-10-21T06:45:39.339Z,83.56
2022-10-21T06:48:41.769Z,83.32
2022-10-21T06:51:43.777Z,83.71
2022-10-21T06:54:45.982Z,83.82
2022-10-21T06:57:48.218Z,83.88
2022-10-21T07:00:50.893Z,82.86
2022-10-21T07:03:53.386Z,83.45
2022-10-21T07:06:55.329Z,83.25
2022-10-21T07:09:58.181Z,81.87
2022-10-21T07:13:00.973Z,84.02
2022-10-21T07:16:05.886Z,83.39
2022-10-21T07:19:07.763Z,81.90
2022-10-21T07:22:10.462Z,82.17
2022-10-21T07:25:13.981Z,82.71
2022-10-21T07:28:15.954Z,82.78
2022-10-21T07:31:19.493Z,80.24
2022-10-21T07:34:21.508Z,80.11
2022-10-21T07:37:23.495Z,80.13
2022-10-21T07:40:25.654Z,79.14
2022-10-21T07:43:27.849Z,80.72
2022-10-21T07:46:30.641Z,79.79
2022-10-21T07:49:32.484Z,81.59
2022-10-21T07:52:37.101Z,81.14
2022-10-21T07:55:42.173Z,79.88
2022-10-21T07:58:44.498Z,78.74
2022-10-21T08:04:55.520Z,80.08
2022-10-21T08:07:59.049Z,80.68
2022-10-21T08:11:01.319Z,79.02
2022-10-21T08:14:06.868Z,79.53
2022-10-21T08:17:08.791Z,77.50
2022-10-21T08:20:11.199Z,76.46
2022-10-21T08:23:15.668Z,73.79
2022-10-21T08:26:17.627Z,72.33
2022-10-21T08:29:19.721Z,74.27
2022-10-21T08:32:21.659Z,74.05
2022-10-21T08:35:23.620Z,74.50
2022-10-21T08:38:25.700Z,74.49
2022-10-21T08:41:30.530Z,74.18
2022-10-21T08:44:53.986Z,73.10
2022-10-21T08:47:58.965Z,72.95
2022-10-21T08:51:01.542Z,70.63
2022-10-21T08:54:13.978Z,70.94
2022-10-21T08:57:16.318Z,69.92
2022-10-21T09:00:24.155Z,67.80
2022-10-21T09:03:40.982Z,69.67
2022-10-21T09:06:48.679Z,67.08
2022-10-21T09:09:57.397Z,68.50
2022-10-21T09:13:17.856Z,68.34
2022-10-21T09:16:24.147Z,67.72
2022-10-21T09:20:04.022Z,68.11
2022-10-21T09:23:43.600Z,67.58
2022-10-21T09:26:48.379Z,67.92
2022-10-21T09:29:55.113Z,66.53
2022-10-21T09:32:59.420Z,65.51
2022-10-21T09:36:12.110Z,65.68
2022-10-21T09:39:24.839Z,65.51
2022-10-21T09:42:46.381Z,65.38
2022-10-21T09:45:48.910Z,65.17
2022-10-21T09:52:22.973Z,64.39
2022-10-21T09:55:25.487Z,64.93
2022-10-21T09:58:45.274Z,64.86
2022-10-21T10:01:48.306Z,63.79
2022-10-21T10:04:50.568Z,64.32
2022-10-21T10:07:52.532Z,63.95
2022-10-21T10:11:09.563Z,63.37
2022-10-21T10:14:33.410Z,63.40
2022-10-21T10:17:38.639Z,64.74
2022-10-21T10:20:40.550Z,64.75
2022-10-21T10:23:50.865Z,64.38
2022-10-21T10:26:52.622Z,65.22
2022-10-21T10:29:55.941Z,63.97
2022-10-21T10:32:58.023Z,62.54
2022-10-21T10:36:03.334Z,62.22
2022-10-21T10:39:09.562Z,61.85
2022-10-21T10:42:19.262Z,59.38
2022-10-21T10:45:22.810Z,61.30
2022-10-21T10:48:28.471Z,61.40
2022-10-21T10:51:32.638Z,59.53
2022-10-21T10:54:35.050Z,61.27
2022-10-21T10:57:45.896Z,59.94
2022-10-21T11:00:56.317Z,60.77
2022-10-21T11:04:05.420Z,60.74
2022-10-21T11:07:20.835Z,61.50
2022-10-21T11:10:31.074Z,60.98
2022-10-21T11:13:39.984Z,62.36
2022-10-21T11:17:01.391Z,62.02
2022-10-21T11:20:08.461Z,61.71
2022-10-21T11:23:22.308Z,59.63
2022-10-21T11:26:39.373Z,62.09
2022-10-21T11:30:05.093Z,61.26
2022-10-21T11:33:25.819Z,59.91
2022-10-21T11:36:46.315Z,60.29
2022-10-21T11:40:16.128Z,60.90
2022-10-21T11:44:06.101Z,60.52
2022-10-21T11:47:13.689Z,61.46
2022-10-21T11:50:27.884Z,60.30
2022-10-21T11:53:57.082Z,58.85
2022-10-21T11:57:50.349Z,59.86
2022-10-21T12:01:10.491Z,58.73
2022-10-21T12:04:25.212Z,58.70
2022-10-21T12:07:45.213Z,58.06
2022-10-21T12:11:24.357Z,58.39
2022-10-21T12:14:48.889Z,58.00
2022-10-21T12:17:50.865Z,57.74
2022-10-21T12:20:54.343Z,58.31
2022-10-21T12:24:07.064Z,57.49
2022-10-21T12:27:16.781Z,58.59
2022-10-21T12:30:54.034Z,58.75
2022-10-21T12:33:58.737Z,57.37
2022-10-21T12:37:02.285Z,56.72
2022-10-21T12:40:10.695Z,58.04
2022-10-21T12:43:28.796Z,57.85
2022-10-21T12:46:40.156Z,58.34
2022-10-21T12:49:43.848Z,58.71
2022-10-21T12:52:46.485Z,59.02
2022-10-21T12:55:53.806Z,58.20
2022-10-21T12:58:59.456Z,59.15
2022-10-21T13:02:08.131Z,58.36
2022-10-21T13:05:10.011Z,59.28
2022-10-21T13:08:14.737Z,59.16
2022-10-21T13:11:37.590Z,59.28
2022-10-21T13:14:58.580Z,58.80
2022-10-21T13:18:00.467Z,59.02
2022-10-21T13:21:02.315Z,58.65
2022-10-21T13:24:16.018Z,59.29
2022-10-21T13:27:32.306Z,59.43
2022-10-21T13:30:36.791Z,59.27
2022-10-21T13:33:39.456Z,59.85
2022-10-21T13:36:43.907Z,58.48
2022-10-21T13:39:49.296Z,59.01
2022-10-21T13:43:01.234Z,60.18
2022-10-21T13:46:12.311Z,59.03
2022-10-21T13:49:32.985Z,60.13
2022-10-21T13:52:34.792Z,60.70
2022-10-21T13:55:37.070Z,60.13
2022-10-21T13:58:39.658Z,59.83
2022-10-21T14:01:47.704Z,59.71
2022-10-21T14:04:49.506Z,60.61
2022-10-21T14:07:51.238Z,61.47
2022-10-21T14:10:53.867Z,59.78
2022-10-21T14:14:03.048Z,60.14
2022-10-21T14:17:09.734Z,60.65
2022-10-21T14:20:20.723Z,60.49
2022-10-21T14:23:24.215Z,59.73
2022-10-21T14:26:30.990Z,60.96
2022-10-21T14:29:34.984Z,60.91
2022-10-21T14:32:37.410Z,61.46
2022-10-21T14:35:39.392Z,61.25
2022-10-21T14:38:43.141Z,61.75
2022-10-21T14:41:46.210Z,61.90
2022-10-21T14:44:51.212Z,61.27
2022-10-21T14:48:02.366Z,61.68
2022-10-21T14:51:09.809Z,61.32
2022-10-21T14:54:29.580Z,61.18
2022-10-21T14:58:06.882Z,61.43
2022-10-21T15:01:12.245Z,62.35
2022-10-21T15:04:40.642Z,61.75
2022-10-21T15:07:42.479Z,62.42
2022-10-21T15:10:44.362Z,62.61
2022-10-21T15:14:00.719Z,61.69
2022-10-21T15:17:04.565Z,62.52
2022-10-21T15:20:15.821Z,62.57
2022-10-21T15:23:20.265Z,62.82
2022-10-21T15:26:31.873Z,62.82
2022-10-21T15:29:42.380Z,63.40
2022-10-21T15:32:45.624Z,63.42
2022-10-21T15:36:08.744Z,63.18
2022-10-21T15:39:11.200Z,63.68
2022-10-21T15:42:16.239Z,63.79
2022-10-21T15:45:21.478Z,63.87
2022-10-21T15:48:23.515Z,63.92
2022-10-21T15:51:25.365Z,63.73
2022-10-21T15:54:27.346Z,63.98
2022-10-21T15:57:29.340Z,63.75
2022-10-21T16:00:33.196Z,63.90
2022-10-21T16:03:37.311Z,64.00
2022-10-21T16:06:40.046Z,64.32
2022-10-21T16:09:41.846Z,64.50
2022-10-21T16:12:44.424Z,64.40
2022-10-21T16:15:46.439Z,64.68
2022-10-21T16:18:48.998Z,64.51
2022-10-21T16:21:51.271Z,64.26
2022-10-21T16:24:53.168Z,64.92
2022-10-21T16:27:56.482Z,64.70
2022-10-21T16:30:59.785Z,64.41
2022-10-21T16:34:01.626Z,64.81
2022-10-21T16:37:11.234Z,64.32
2022-10-21T16:40:15.680Z,64.47
2022-10-21T16:43:18.139Z,64.79
2022-10-21T16:46:36.476Z,65.19
2022-10-21T16:49:38.859Z,64.93
2022-10-21T16:52:42.863Z,64.42
2022-10-21T16:55:44.724Z,64.71
2022-10-21T16:58:46.804Z,65.08
2022-10-21T17:01:48.748Z,64.79
2022-10-21T17:04:51.182Z,65.36
2022-10-21T17:07:54.197Z,65.59
2022-10-21T17:10:56.223Z,65.32
2022-10-21T17:13:58.599Z,64.41
2022-10-21T17:17:00.614Z,64.60
2022-10-21T17:20:02.828Z,64.11
2022-10-21T17:23:05.095Z,64.24
2022-10-21T17:26:07.246Z,64.34
2022-10-21T17:29:11.044Z,65.07
2022-10-21T17:32:13.282Z,64.80
2022-10-21T17:35:21.618Z,64.12
2022-10-21T17:38:23.627Z,64.23
2022-10-21T17:41:25.985Z,65.15
2022-10-21T17:44:28.221Z,64.79
2022-10-21T17:47:30.296Z,64.89
2022-10-21T17:50:32.813Z,65.51
2022-10-21T17:53:34.755Z,65.55
2022-10-21T17:56:37.064Z,65.81
2022-10-21T17:59:39.403Z,65.30
2022-10-21T18:02:41.582Z,65.24
2022-10-21T18:05:44.884Z,65.52
2022-10-21T18:08:47.335Z,65.02
2022-10-21T18:11:49.522Z,66.00
2022-10-21T18:14:51.814Z,65.44
2022-10-21T18:17:54.875Z,65.48
2022-10-21T18:21:05.392Z,66.03
2022-10-21T18:24:12.348Z,66.28
2022-10-21T18:27:14.915Z,65.82
2022-10-21T18:30:17.540Z,66.10
2022-10-21T18:33:20.375Z,66.46
2022-10-21T18:36:23.304Z,66.86
2022-10-21T18:39:25.951Z,67.83
2022-10-21T18:42:28.557Z,67.39
2022-10-21T18:45:30.745Z,66.65
2022-10-21T18:48:32.562Z,66.42
2022-10-21T18:51:34.814Z,66.43
2022-10-21T18:54:36.993Z,66.51
2022-10-21T18:57:39.662Z,66.67
2022-10-21T19:00:42.110Z,66.45
2022-10-21T19:03:54.626Z,66.66
2022-10-21T19:06:56.844Z,67.48
2022-10-21T19:09:59.107Z,67.35
2022-10-21T19:13:01.126Z,67.10
2022-10-21T19:16:03.225Z,66.06
2022-10-21T19:19:05.327Z,65.58
2022-10-21T19:22:07.622Z,66.33
2022-10-21T19:25:10.384Z,66.19
2022-10-21T19:28:12.394Z,66.67
2022-10-21T19:31:15.010Z,66.85
2022-10-21T19:34:21.179Z,67.04
2022-10-21T19:37:24.136Z,67.87
2022-10-21T19:40:26.522Z,68.28
2022-10-21T19:43:30.478Z,69.16
2022-10-21T19:46:34.522Z,69.28
2022-10-21T19:49:37.118Z,69.50
2022-10-21T19:52:40.348Z,68.83
2022-10-21T19:55:42.887Z,69.06
2022-10-21T19:58:48.579Z,68.81
2022-10-21T20:01:50.877Z,69.67
2022-10-21T20:04:53.164Z,69.71
2022-10-21T20:07:55.190Z,69.63
2022-10-21T20:11:02.318Z,69.46
2022-10-21T20:14:04.703Z,69.31
2022-10-21T20:17:07.744Z,68.90
2022-10-21T20:20:10.628Z,69.95
2022-10-21T20:23:19.348Z,70.19
2022-10-21T20:26:22.984Z,69.61
2022-10-21T20:29:25.662Z,70.58
2022-10-21T20:32:28.756Z,70.83
2022-10-21T20:35:31.917Z,70.05
2022-10-21T20:38:34.485Z,70.44
2022-10-21T20:41:38.368Z,69.78
2022-10-21T20:44:40.456Z,70.01
2022-10-21T20:47:42.767Z,69.92
2022-10-21T20:50:45.543Z,70.76
2022-10-21T20:53:49.425Z,69.99
2022-10-21T20:56:52.064Z,70.39
2022-10-21T20:59:53.958Z,70.34
2022-10-21T21:06:02.124Z,71.46
2022-10-21T21:12:26.439Z,71.67
2022-10-21T21:15:28.693Z,71.59
2022-10-21T21:18:30.688Z,71.18
2022-10-21T21:21:34.830Z,70.50
2022-10-21T21:24:37.303Z,70.92
2022-10-21T21:27:39.209Z,71.54
2022-10-21T21:30:41.905Z,72.27
2022-10-21T21:33:45.512Z,71.49
2022-10-21T21:36:47.549Z,72.00
2022-10-21T21:39:50.001Z,71.62
2022-10-21T21:42:51.784Z,71.70
2022-10-21T21:45:53.593Z,71.95
2022-10-21T21:49:00.944Z,71.38
2022-10-21T21:52:04.749Z,71.62
2022-10-21T21:55:07.165Z,72.12
2022-10-21T21:58:10.749Z,73.11
2022-10-21T22:01:18.613Z,72.96
2022-10-21T22:04:20.697Z,73.17
2022-10-21T22:07:22.455Z,73.72
2022-10-21T22:10:24.952Z,73.71
2022-10-21T22:13:27.176Z,73.30
2022-10-21T22:16:30.519Z,73.34
2022-10-21T22:19:33.122Z,74.26
2022-10-21T22:22:35.642Z,74.10
2022-10-21T22:25:38.309Z,74.62
2022-10-21T22:28:40.937Z,75.04
2022-10-21T22:31:42.959Z,74.38
2022-10-21T22:34:45.774Z,74.43
2022-10-21T22:37:47.595Z,74.18
2022-10-21T22:40:57.310Z,74.97
2022-10-21T22:43:59.256Z,74.38
2022-10-21T22:47:01.478Z,74.39
2022-10-21T22:50:03.521Z,74.30
2022-10-21T22:53:06.725Z,73.70
2022-10-21T22:56:08.802Z,74.66
2022-10-21T22:59:10.625Z,74.36
2022-10-21T23:02:13.048Z,74.77
2022-10-21T23:05:15.095Z,74.85
2022-10-21T23:08:17.859Z,74.57
2022-10-21T23:11:19.660Z,74.68
2022-10-21T23:14:21.352Z,75.71
2022-10-21T23:17:25.720Z,75.78
2022-10-21T23:20:27.608Z,75.77
2022-10-21T23:23:30.190Z,76.33
2022-10-21T23:26:32.280Z,76.67
2022-10-21T23:29:34.258Z,76.45
2022-10-21T23:32:36.260Z,76.27
2022-10-21T23:35:38.057Z,76.61
2022-10-21T23:38:39.937Z,76.04
2022-10-21T23:41:41.828Z,76.68
2022-10-21T23:44:43.895Z,76.63
2022-10-21T23:47:46.438Z,76.53
2022-10-21T23:50:48.466Z,76.31
2022-10-21T23:53:50.210Z,76.64
2022-10-21T23:56:52.313Z,75.94
2022-10-21T23:59:54.275Z,75.86
